createdAt,value
2023-09-17T00:00:21.124Z,1.13
2023-09-17T00:02:47.967Z,1.15
2023-09-17T00:05:14.758Z,1.30
2023-09-17T00:07:42.924Z,1.20
2023-09-17T00:10:10.274Z,1.30
2023-09-17T00:12:37.048Z,1.13
2023-09-17T00:15:04.070Z,1.30
2023-09-17T00:17:31.177Z,1.23
2023-09-17T00:19:57.973Z,1.20
2023-09-17T00:22:25.483Z,1.20
2023-09-17T00:24:52.176Z,1.10
2023-09-17T00:27:18.982Z,1.10
2023-09-17T00:29:45.601Z,1.08
2023-09-17T00:32:12.438Z,1.10
2023-09-17T00:34:39.220Z,1.30
2023-09-17T00:37:05.922Z,1.23
2023-09-17T00:39:32.640Z,1.40
2023-09-17T00:41:59.795Z,1.30
2023-09-17T00:44:26.614Z,1.30
2023-09-17T00:46:53.554Z,1.40
2023-09-17T00:49:20.756Z,1.20
2023-09-17T00:51:47.803Z,1.42
2023-09-17T00:54:14.856Z,1.30
2023-09-17T00:56:41.900Z,1.30
2023-09-17T00:59:08.716Z,1.10
2023-09-17T01:01:36.403Z,1.20
2023-09-17T01:04:05.244Z,1.15
2023-09-17T01:06:32.249Z,1.25
2023-09-17T01:08:59.448Z,1.20
2023-09-17T01:11:26.606Z,1.30
2023-09-17T01:13:59.978Z,1.30
2023-09-17T01:16:27.928Z,1.20
2023-09-17T01:18:55.343Z,1.30
2023-09-17T01:21:31.033Z,1.40
2023-09-17T01:24:24.697Z,1.20
2023-09-17T01:27:19.693Z,1.30
2023-09-17T01:29:47.842Z,1.20
2023-09-17T01:32:16.171Z,1.20
2023-09-17T01:34:44.816Z,1.10
2023-09-17T01:37:33.924Z,1.33
2023-09-17T01:40:06.507Z,1.10
2023-09-17T01:42:34.947Z,1.10
2023-09-17T01:45:03.509Z,1.17
2023-09-17T01:47:31.665Z,1.20
2023-09-17T01:49:59.676Z,1.20
2023-09-17T01:52:28.019Z,1.17
2023-09-17T01:54:54.845Z,1.10
2023-09-17T01:57:21.530Z,1.10
2023-09-17T01:59:48.243Z,1.10
2023-09-17T02:02:15.009Z,1.20
2023-09-17T02:04:41.778Z,1.10
2023-09-17T02:07:08.617Z,1.13
2023-09-17T02:09:35.251Z,1.10
2023-09-17T02:12:01.939Z,1.13
2023-09-17T02:14:29.210Z,1.10
2023-09-17T02:16:56.544Z,1.20
2023-09-17T02:19:23.803Z,1.20
2023-09-17T02:21:51.422Z,1.10
2023-09-17T02:24:18.024Z,1.02
2023-09-17T02:26:45.545Z,1.27
2023-09-17T02:29:12.390Z,1.20
2023-09-17T02:31:39.238Z,1.10
2023-09-17T02:34:06.032Z,1.10
2023-09-17T02:36:33.139Z,1.10
2023-09-17T02:39:00.340Z,1.30
2023-09-17T02:41:27.165Z,1.00
2023-09-17T02:43:54.027Z,1.17
2023-09-17T02:46:22.141Z,1.20
2023-09-17T02:48:49.037Z,1.13
2023-09-17T02:51:16.415Z,1.10
2023-09-17T02:53:43.451Z,1.10
2023-09-17T02:56:10.138Z,1.10
2023-09-17T02:58:36.886Z,1.00
2023-09-17T03:01:16.865Z,0.90
2023-09-17T03:03:43.598Z,0.97
2023-09-17T03:06:11.715Z,1.08
2023-09-17T03:08:42.779Z,1.05
2023-09-17T03:11:14.958Z,0.93
2023-09-17T03:13:48.844Z,1.08
2023-09-17T03:16:20.030Z,1.10
2023-09-17T03:18:46.924Z,1.00
2023-09-17T03:21:13.794Z,1.08
2023-09-17T03:23:40.473Z,1.00
2023-09-17T03:26:10.244Z,1.17
2023-09-17T03:28:36.990Z,1.10
2023-09-17T03:31:05.325Z,1.00
2023-09-17T03:33:32.566Z,1.10
2023-09-17T03:36:00.331Z,1.00
2023-09-17T03:38:27.168Z,1.00
2023-09-17T03:40:54.180Z,1.10
2023-09-17T03:43:21.233Z,1.15
2023-09-17T03:45:48.566Z,0.98
2023-09-17T03:48:15.250Z,1.00
2023-09-17T03:50:43.887Z,0.90
2023-09-17T03:53:11.453Z,1.00
2023-09-17T03:55:39.163Z,1.00
2023-09-17T04:28:56.460Z,13.80
2023-09-17T04:31:23.509Z,7.97
2023-09-17T04:33:50.680Z,2.05
2023-09-17T04:36:17.498Z,1.00
2023-09-17T04:38:44.158Z,1.00
2023-09-17T04:41:10.866Z,1.10
2023-09-17T04:43:38.066Z,1.17
2023-09-17T04:46:05.311Z,1.08
2023-09-17T04:48:34.272Z,1.02
2023-09-17T04:51:00.941Z,1.00
2023-09-17T04:53:27.650Z,1.00
2023-09-17T04:55:55.431Z,0.90
2023-09-17T04:58:26.545Z,0.93
2023-09-17T05:00:56.545Z,0.90
2023-09-17T05:03:24.552Z,1.20
2023-09-17T05:05:52.161Z,0.90
2023-09-17T05:08:19.625Z,0.95
2023-09-17T05:10:47.002Z,1.00
2023-09-17T05:13:13.791Z,1.00
2023-09-17T05:15:40.468Z,1.20
2023-09-17T05:18:10.767Z,1.10
2023-09-17T05:20:44.942Z,0.90
2023-09-17T05:23:14.871Z,1.00
2023-09-17T05:25:41.920Z,1.00
2023-09-17T05:28:10.596Z,0.90
2023-09-17T05:30:38.535Z,0.90
2023-09-17T05:33:05.848Z,0.98
2023-09-17T05:35:33.522Z,0.90
2023-09-17T05:38:00.300Z,1.00
2023-09-17T05:40:27.363Z,1.10
2023-09-17T05:42:54.293Z,1.05
2023-09-17T05:45:20.989Z,1.00
2023-09-17T05:47:47.797Z,1.00
2023-09-17T05:50:14.560Z,1.00
2023-09-17T05:52:41.469Z,1.00
2023-09-17T05:55:09.176Z,1.10
2023-09-17T05:57:36.032Z,1.10
2023-09-17T06:00:05.709Z,1.10
2023-09-17T06:02:41.178Z,1.00
2023-09-17T06:05:08.700Z,0.97
2023-09-17T06:07:35.659Z,0.95
2023-09-17T06:10:02.485Z,1.17
2023-09-17T06:12:30.361Z,3.10
2023-09-17T06:14:57.273Z,1.30
2023-09-17T06:17:24.185Z,1.08
2023-09-17T06:19:52.037Z,0.98
2023-09-17T06:22:18.752Z,1.00
2023-09-17T06:24:45.893Z,0.98
2023-09-17T06:27:12.516Z,1.00
2023-09-17T06:29:39.313Z,1.00
2023-09-17T06:32:06.356Z,1.08
2023-09-17T06:34:34.091Z,1.00
2023-09-17T06:37:01.020Z,1.00
2023-09-17T06:39:27.858Z,1.00
2023-09-17T06:41:54.665Z,1.00
2023-09-17T06:44:21.446Z,1.00
2023-09-17T06:46:48.271Z,1.00
2023-09-17T06:49:15.066Z,0.93
2023-09-17T06:51:41.834Z,0.90
2023-09-17T06:54:08.696Z,1.08
2023-09-17T06:56:35.417Z,0.95
2023-09-17T06:59:02.161Z,1.00
2023-09-17T07:01:28.939Z,1.00
2023-09-17T07:03:55.639Z,1.00
2023-09-17T07:06:22.756Z,1.10
2023-09-17T07:08:49.426Z,0.80
2023-09-17T07:11:16.079Z,1.00
2023-09-17T07:13:42.716Z,1.10
2023-09-17T07:16:09.530Z,1.00
2023-09-17T07:18:36.164Z,0.90
2023-09-17T07:21:02.913Z,1.00
2023-09-17T07:23:31.138Z,0.90
2023-09-17T07:25:57.920Z,1.00
2023-09-17T07:28:24.689Z,1.00
2023-09-17T07:30:56.169Z,0.90
2023-09-17T07:33:23.470Z,1.00
2023-09-17T07:35:50.267Z,1.00
2023-09-17T07:38:17.230Z,0.85
2023-09-17T07:40:44.170Z,0.98
2023-09-17T07:43:10.932Z,1.00
2023-09-17T07:45:37.666Z,0.90
2023-09-17T07:48:04.759Z,0.93
2023-09-17T07:50:31.750Z,1.00
2023-09-17T07:52:58.576Z,1.10
2023-09-17T07:55:25.338Z,1.30
2023-09-17T07:57:52.248Z,1.60
2023-09-17T08:00:19.160Z,1.20
2023-09-17T08:02:46.491Z,1.00
2023-09-17T08:05:13.791Z,0.88
2023-09-17T08:07:43.216Z,1.10
2023-09-17T08:10:10.661Z,1.17
2023-09-17T08:12:37.389Z,0.90
2023-09-17T08:15:04.591Z,0.90
2023-09-17T08:17:31.365Z,0.90
2023-09-17T08:19:59.767Z,1.60
2023-09-17T08:22:28.482Z,1.23
2023-09-17T08:25:11.425Z,1.10
2023-09-17T08:27:58.081Z,1.00
2023-09-17T08:30:45.125Z,0.90
2023-09-17T08:33:32.389Z,0.93
2023-09-17T08:36:10.338Z,0.90
2023-09-17T08:38:37.257Z,0.90
2023-09-17T08:41:06.353Z,0.90
2023-09-17T08:43:33.289Z,0.85
2023-09-17T08:46:01.820Z,0.98
2023-09-17T08:48:28.506Z,0.98
2023-09-17T08:50:57.097Z,0.90
2023-09-17T08:53:32.003Z,0.90
2023-09-17T08:56:00.289Z,0.90
2023-09-17T08:58:32.790Z,0.90
2023-09-17T09:01:04.448Z,0.95
2023-09-17T09:03:34.770Z,1.00
2023-09-17T09:06:04.759Z,0.90
2023-09-17T09:08:32.228Z,0.98
2023-09-17T09:11:00.944Z,0.93
2023-09-17T09:13:29.495Z,1.00
2023-09-17T09:15:57.959Z,1.00
2023-09-17T09:18:25.568Z,1.00
2023-09-17T09:20:52.271Z,1.00
2023-09-17T09:23:18.993Z,1.00
2023-09-17T09:25:45.646Z,0.98
2023-09-17T09:28:12.378Z,1.00
2023-09-17T09:30:38.992Z,1.00
2023-09-17T09:33:06.097Z,1.00
2023-09-17T09:35:32.858Z,0.90
2023-09-17T09:38:02.482Z,0.93
2023-09-17T09:40:29.657Z,0.93
2023-09-17T09:42:57.919Z,1.00
2023-09-17T09:45:24.656Z,1.05
2023-09-17T09:47:53.055Z,0.90
2023-09-17T09:50:28.058Z,1.10
2023-09-17T09:52:56.201Z,1.00
2023-09-17T09:55:25.187Z,1.10
2023-09-17T09:57:54.911Z,1.15
2023-09-17T10:00:28.407Z,1.00
2023-09-17T10:02:55.922Z,1.00
2023-09-17T10:05:35.572Z,0.95
2023-09-17T10:08:05.801Z,1.00
2023-09-17T10:10:33.077Z,1.00
2023-09-17T10:13:02.109Z,1.00
2023-09-17T10:15:28.881Z,1.10
2023-09-17T10:17:57.258Z,0.98
2023-09-17T10:20:27.168Z,0.90
2023-09-17T10:22:55.599Z,1.10
2023-09-17T10:25:24.437Z,0.93
2023-09-17T10:27:53.113Z,1.10
2023-09-17T10:30:19.903Z,1.15
2023-09-17T10:32:48.931Z,0.90
2023-09-17T10:35:15.636Z,1.00
2023-09-17T10:37:43.833Z,1.10
2023-09-17T10:40:11.590Z,1.00
2023-09-17T10:42:39.696Z,1.00
2023-09-17T10:45:11.706Z,1.10
2023-09-17T10:47:42.162Z,1.00
2023-09-17T10:50:14.303Z,0.90
2023-09-17T10:52:41.298Z,0.98
2023-09-17T10:55:08.736Z,1.00
2023-09-17T10:57:40.356Z,0.90
2023-09-17T11:00:19.986Z,0.90
2023-09-17T11:02:51.919Z,0.83
2023-09-17T11:05:21.349Z,0.83
2023-09-17T11:07:49.150Z,0.93
2023-09-17T11:10:29.392Z,1.00
2023-09-17T11:12:59.224Z,0.80
2023-09-17T11:15:26.233Z,0.88
2023-09-17T11:18:00.767Z,0.90
2023-09-17T11:20:27.932Z,1.10
2023-09-17T11:22:54.612Z,0.90
2023-09-17T11:25:35.834Z,0.88
2023-09-17T11:28:13.846Z,0.90
2023-09-17T11:31:00.678Z,0.93
2023-09-17T11:33:27.848Z,0.80
2023-09-17T11:35:56.170Z,0.90
2023-09-17T11:38:27.354Z,0.90
2023-09-17T11:41:10.045Z,0.90
2023-09-17T11:43:44.301Z,1.00
2023-09-17T11:46:12.861Z,0.80
2023-09-17T11:48:40.450Z,1.00
2023-09-17T11:51:22.227Z,1.00
2023-09-17T11:54:08.861Z,0.95
2023-09-17T11:56:37.841Z,0.90
2023-09-17T11:59:10.407Z,0.90
2023-09-17T12:01:45.624Z,0.90
2023-09-17T12:04:13.053Z,0.90
2023-09-17T12:06:42.554Z,0.90
2023-09-17T12:09:22.973Z,0.90
2023-09-17T12:11:49.943Z,0.90
2023-09-17T12:14:17.730Z,1.00
2023-09-17T12:16:47.394Z,0.90
2023-09-17T12:19:18.331Z,0.80
2023-09-17T12:21:51.993Z,0.80
2023-09-17T12:24:35.550Z,0.90
2023-09-17T12:27:34.261Z,0.90
2023-09-17T12:30:00.988Z,0.88
2023-09-17T12:32:31.539Z,0.90
2023-09-17T12:34:58.641Z,0.80
2023-09-17T12:37:29.281Z,0.90
2023-09-17T12:39:56.013Z,0.88
2023-09-17T12:42:22.854Z,0.90
2023-09-17T12:44:50.596Z,0.90
2023-09-17T12:47:18.232Z,0.80
2023-09-17T12:49:45.381Z,0.93
2023-09-17T12:52:13.256Z,0.80
2023-09-17T12:54:41.082Z,0.90
2023-09-17T12:57:08.148Z,0.80
2023-09-17T12:59:40.546Z,0.85
2023-09-17T13:02:09.622Z,0.90
2023-09-17T13:04:44.697Z,0.90
2023-09-17T13:07:21.689Z,0.90
2023-09-17T13:09:50.486Z,0.90
2023-09-17T13:12:25.819Z,1.00
2023-09-17T13:14:53.607Z,1.00
2023-09-17T13:17:21.403Z,0.80
2023-09-17T13:19:49.077Z,0.80
2023-09-17T13:22:16.665Z,0.80
2023-09-17T13:24:45.533Z,0.90
2023-09-17T13:27:12.365Z,0.90
2023-09-17T13:29:41.307Z,0.85
2023-09-17T13:32:12.731Z,0.90
2023-09-17T13:34:42.706Z,0.90
2023-09-17T13:37:10.535Z,0.90
2023-09-17T13:39:45.365Z,0.90
2023-09-17T13:42:12.975Z,0.90
2023-09-17T13:44:39.654Z,0.90
2023-09-17T13:47:12.226Z,0.90
2023-09-17T13:49:41.694Z,0.85
2023-09-17T13:52:09.717Z,0.80
2023-09-17T13:54:39.740Z,0.70
2023-09-17T13:57:06.668Z,0.85
2023-09-17T13:59:33.337Z,0.80
2023-09-17T14:02:00.025Z,0.80
2023-09-17T14:04:27.000Z,0.90
2023-09-17T14:06:55.726Z,0.80
2023-09-17T14:09:23.661Z,0.88
2023-09-17T14:11:50.510Z,0.90
2023-09-17T14:14:17.243Z,0.90
2023-09-17T14:16:45.396Z,0.90
2023-09-17T14:19:17.829Z,0.90
2023-09-17T14:21:45.861Z,0.85
2023-09-17T14:24:12.462Z,0.80
2023-09-17T14:26:39.170Z,0.80
2023-09-17T14:29:05.949Z,0.80
2023-09-17T14:31:32.705Z,0.98
2023-09-17T14:33:59.309Z,1.20
2023-09-17T14:36:25.938Z,0.90
2023-09-17T14:38:52.957Z,1.00
2023-09-17T14:41:19.883Z,1.90
2023-09-17T14:43:46.588Z,3.00
2023-09-17T14:46:13.763Z,2.00
2023-09-17T14:48:40.457Z,6.35
2023-09-17T14:51:07.106Z,1.43
2023-09-17T14:53:33.737Z,1.25
2023-09-17T14:56:00.483Z,0.90
2023-09-17T14:58:27.076Z,0.93
2023-09-17T15:00:53.737Z,1.03
2023-09-17T15:03:20.599Z,1.10
2023-09-17T15:05:47.898Z,1.77
2023-09-17T15:08:14.682Z,1.50
2023-09-17T15:10:43.302Z,1.67
2023-09-17T15:13:10.560Z,1.10
2023-09-17T15:15:37.184Z,0.90
2023-09-17T15:18:04.181Z,0.90
2023-09-17T15:20:31.273Z,0.90
2023-09-17T15:22:58.328Z,0.80
2023-09-17T15:25:25.050Z,0.90
2023-09-17T15:27:51.705Z,0.80
2023-09-17T15:30:18.841Z,1.10
2023-09-17T15:32:46.095Z,1.05
2023-09-17T15:35:18.156Z,1.00
2023-09-17T15:37:47.815Z,0.88
2023-09-17T15:40:14.830Z,0.90
2023-09-17T15:42:46.762Z,1.00
2023-09-17T15:45:13.729Z,1.00
2023-09-17T15:47:41.548Z,0.80
2023-09-17T15:50:09.571Z,0.90
2023-09-17T15:52:36.303Z,0.90
2023-09-17T15:55:04.455Z,0.80
2023-09-17T15:57:31.138Z,0.90
2023-09-17T15:59:57.909Z,0.82
2023-09-17T16:02:24.692Z,0.98
2023-09-17T16:04:51.568Z,0.77
2023-09-17T16:07:18.222Z,0.80
2023-09-17T16:09:44.856Z,0.98
2023-09-17T16:12:11.780Z,0.90
2023-09-17T16:14:39.113Z,0.90
2023-09-17T16:17:05.747Z,0.80
2023-09-17T16:19:32.654Z,1.00
2023-09-17T16:21:59.303Z,1.00
2023-09-17T16:24:26.061Z,1.60
2023-09-17T16:26:52.700Z,1.90
2023-09-17T16:29:19.405Z,1.58
2023-09-17T16:31:46.158Z,1.10
2023-09-17T16:34:12.942Z,1.00
2023-09-17T16:36:41.008Z,1.30
2023-09-17T16:39:07.652Z,1.13
2023-09-17T16:41:34.276Z,1.00
2023-09-17T16:44:01.025Z,1.10
2023-09-17T16:46:27.763Z,1.30
2023-09-17T16:48:54.452Z,1.10
2023-09-17T16:51:21.093Z,0.90
2023-09-17T16:53:47.819Z,1.10
2023-09-17T16:56:14.473Z,1.00
2023-09-17T16:58:41.229Z,1.10
2023-09-17T17:01:07.949Z,1.00
2023-09-17T17:03:34.705Z,2.60
2023-09-17T17:06:01.450Z,2.13
2023-09-17T17:08:29.273Z,1.70
2023-09-17T17:10:57.772Z,1.77
2023-09-17T17:13:24.573Z,1.73
2023-09-17T17:15:51.327Z,1.60
2023-09-17T17:18:18.699Z,1.75
2023-09-17T17:20:45.331Z,1.90
2023-09-17T17:23:12.025Z,2.90
2023-09-17T17:25:39.499Z,3.63
2023-09-17T17:28:06.255Z,4.15
2023-09-17T17:30:32.935Z,4.20
2023-09-17T17:32:59.690Z,3.60
2023-09-17T17:35:26.851Z,3.88
2023-09-17T17:37:53.585Z,3.45
2023-09-17T17:40:23.695Z,4.30
2023-09-17T17:42:51.103Z,4.77
2023-09-17T17:45:17.904Z,4.50
2023-09-17T17:47:44.897Z,4.80
2023-09-17T17:50:14.605Z,4.38
2023-09-17T17:52:42.155Z,3.95
2023-09-17T17:55:09.827Z,4.20
2023-09-17T17:57:36.965Z,4.22
2023-09-17T18:00:06.861Z,3.90
2023-09-17T18:02:40.102Z,3.38
2023-09-17T18:05:07.855Z,3.17
2023-09-17T18:07:35.044Z,2.58
2023-09-17T18:10:07.707Z,2.10
2023-09-17T18:12:35.233Z,1.80
2023-09-17T18:15:03.196Z,1.30
2023-09-17T18:17:31.447Z,1.30
2023-09-17T18:19:58.454Z,1.20
2023-09-17T18:22:25.116Z,1.30
2023-09-17T18:24:51.806Z,1.40
2023-09-17T18:27:18.577Z,1.30
2023-09-17T18:29:45.496Z,1.20
2023-09-17T18:32:12.156Z,1.20
2023-09-17T18:34:38.860Z,1.67
2023-09-17T18:37:07.286Z,1.40
2023-09-17T18:39:34.033Z,1.38
2023-09-17T18:42:01.133Z,1.13
2023-09-17T18:44:29.914Z,1.10
2023-09-17T18:46:57.135Z,1.30
2023-09-17T18:49:23.807Z,1.10
2023-09-17T18:51:50.458Z,1.05
2023-09-17T18:54:17.396Z,1.10
2023-09-17T18:56:45.025Z,1.00
2023-09-17T18:59:12.028Z,1.00
2023-09-17T19:01:40.793Z,1.00
2023-09-17T19:04:10.373Z,0.90
2023-09-17T19:06:37.156Z,0.80
2023-09-17T19:09:07.200Z,0.95
2023-09-17T19:11:34.641Z,0.90
2023-09-17T19:14:01.456Z,0.90
2023-09-17T19:16:28.873Z,0.90
2023-09-17T19:18:56.745Z,0.80
2023-09-17T19:21:25.468Z,0.90
2023-09-17T19:23:53.401Z,1.10
2023-09-17T19:26:20.964Z,1.00
2023-09-17T19:28:48.042Z,1.00
2023-09-17T19:31:14.929Z,0.80
2023-09-17T19:33:41.662Z,0.90
2023-09-17T19:36:08.305Z,0.95
2023-09-17T19:38:35.747Z,0.90
2023-09-17T19:41:03.312Z,1.10
2023-09-17T19:43:30.009Z,1.00
2023-09-17T19:45:58.073Z,0.90
2023-09-17T19:48:25.663Z,0.98
2023-09-17T19:50:52.977Z,1.10
2023-09-17T19:53:20.483Z,1.00
2023-09-17T19:55:47.843Z,0.95
2023-09-17T19:58:14.672Z,1.02
2023-09-17T20:00:42.725Z,1.00
2023-09-17T20:03:09.650Z,0.82
2023-09-17T20:05:36.604Z,1.00
2023-09-17T20:08:08.375Z,1.00
2023-09-17T20:10:37.856Z,1.00
2023-09-17T20:13:05.111Z,0.93
2023-09-17T20:15:31.895Z,0.90
2023-09-17T20:17:59.382Z,0.98
